Vitsentzos Kornaros — SXNX — position and weather

sailwx.info

Track history (hours):
 
Tides and Currents Weather Stations Pressure Air Temp Water Temp Dewpoint Dewpoint Depression Visibility Wind Speed Wind Dir Waves Ship Positions

Vitsentzos Kornaros

Last reported at 2014-Aug-01 09:33 UTC. Time now 2014-Aug-01 09:49 UTC.
Position N 37°57' E 023°38'.

Length 128 m; draft 4.5 m.

Type: Passenger vessel. MMSI: 239311000.

Date/timePositionNaut miles runAvg speedWind from/ knotsBaromVisibWave heightAir tempDewpointWater temp
2014-Aug-01 09:33N 37°57' E 023°38'0 0.0
2014-Aug-01 08:33N 37°57' E 023°38'0 0.0
2014-Aug-01 07:33N 37°57' E 023°38'0 0.0
2014-Aug-01 06:33N 37°57' E 023°38'0 0.0
2014-Aug-01 05:30N 37°57' E 023°38'0 0.0
2014-Aug-01 04:33N 37°57' E 023°38'0 0.1
2014-Aug-01 03:32N 37°57' E 023°38'1010.6
2014-Aug-01 02:33N 37°47' E 023°42'1313.1
2014-Aug-01 01:33N 37°34' E 023°42'1414.5
2014-Aug-01 00:34N 37°20' E 023°36'1514.6
2014-Jul-31 23:34N 37°06' E 023°30'1414.0
2014-Jul-31 22:33N 36°53' E 023°24'1414.0
2014-Jul-31 21:33N 36°40' E 023°20'1414.0
2014-Jul-31 20:34N 36°27' E 023°14'1312.0
2014-Jul-31 19:30N 36°16' E 023°05'6 6.2
2014-Jul-31 18:33N 36°13' E 023°10'1413.6
2014-Jul-31 17:33N 36°01' E 023°20'1514.0
2014-Jul-31 16:28N 35°49' E 023°30'11 0.5
2014-Jul-30 18:20N 35°54' E 023°19'30 3.4
2014-Jul-30 09:33N 36°21' E 023°01'7 7.2
2014-Jul-30 08:33N 36°15' E 023°07'1514.9
2014-Jul-30 07:33N 36°02' E 023°15'10 9.3
2014-Jul-30 06:30N 35°53' E 023°20'1414.7
2014-Jul-30 05:33N 35°43' E 023°32'40 1.3
2014-Jul-28 22:31N 36°16' E 023°05'6 6.3
2014-Jul-28 21:33N 36°21' E 023°09'1714.0
2014-Jul-28 20:21N 36°36' E 023°19'1214.3
2014-Jul-28 19:33N 36°47' E 023°23'1713.9
2014-Jul-28 18:18N 37°04' E 023°29'1013.3
2014-Jul-28 17:32N 37°13' E 023°33'1313.4
2014-Jul-28 16:33N 37°26' E 023°38'1414.0
2014-Jul-28 15:33N 37°40' E 023°42'1413.9
2014-Jul-28 14:33N 37°53' E 023°37'4 4.2
2014-Jul-28 13:33N 37°57' E 023°38'0 0.0
2014-Jul-28 12:33N 37°57' E 023°38'0 0.0
2014-Jul-28 11:33N 37°57' E 023°38'0 0.0
2014-Jul-28 10:33N 37°57' E 023°38'0 0.0
2014-Jul-28 09:33N 37°57' E 023°38'0 0.0
2014-Jul-28 08:33N 37°57' E 023°38'0 0.0
2014-Jul-28 07:33N 37°57' E 023°38'0 0.0
2014-Jul-28 06:33N 37°57' E 023°38'0 0.0
2014-Jul-28 05:33N 37°57' E 023°38'0 0.0
2014-Jul-28 04:33N 37°57' E 023°38'0 0.0
2014-Jul-28 03:33N 37°57' E 023°38'2 1.9
2014-Jul-28 02:33N 37°55' E 023°37'1515.1
2014-Jul-28 01:33N 37°41' E 023°45'1514.6
2014-Jul-28 00:33N 37°28' E 023°39'1515.2
2014-Jul-27 23:33N 37°13' E 023°32'1515.0
2014-Jul-27 22:33N 36°59' E 023°27'1514.9
2014-Jul-27 21:33N 36°45' E 023°21'1514.3
2014-Jul-27 20:32N 36°31' E 023°16'16 8.0
2014-Jul-27 18:28N 36°17' E 023°06'1314.4
2014-Jul-27 17:33N 36°05' E 023°13'12 8.9
2014-Jul-27 16:14N 35°54' E 023°18'913.6
2014-Jul-27 15:33N 35°48' E 023°27'9 0.2
2014-Jul-26 01:13N 35°54' E 023°18'8110.6
2014-Jul-25 17:33N 37°15' E 023°33'1313.4
2014-Jul-25 16:34N 37°27' E 023°38'1414.0
2014-Jul-25 15:33N 37°41' E 023°41'1414.1
2014-Jul-25 14:34N 37°55' E 023°37'2 2.3
2014-Jul-25 13:33N 37°57' E 023°38'0 0.0
2014-Jul-25 12:33N 37°57' E 023°38'0 0.0
2014-Jul-25 11:33N 37°57' E 023°38'0 0.0
2014-Jul-25 10:33N 37°57' E 023°38'0 0.0
2014-Jul-25 09:33N 37°57' E 023°38'0 0.0
2014-Jul-25 08:33N 37°57' E 023°38'0 0.0
2014-Jul-25 07:33N 37°57' E 023°38'0 0.0
2014-Jul-25 06:33N 37°57' E 023°38'0 0.0
2014-Jul-25 05:33N 37°57' E 023°38'5 1.7
2014-Jul-25 02:33N 37°52' E 023°39'1413.5
2014-Jul-25 01:29N 37°38' E 023°44'1414.7
2014-Jul-25 00:33N 37°25' E 023°38'2215.1
2014-Jul-24 23:05N 37°04' E 023°29'1015.2
2014-Jul-24 22:25N 36°55' E 023°25'1414.8
2014-Jul-24 21:29N 36°42' E 023°19'72 2.9
2014-Jul-23 21:11N 35°32' E 023°39'1 0.0
2014-Jul-22 15:32N 35°31' E 023°38'  
Track history (hours):
 
Tides and Currents Weather Stations Pressure Air Temp Water Temp Dewpoint Dewpoint Depression Visibility Wind Speed Wind Dir Waves Ship Positions

Vitsentzos Kornaros

Last reported at 2014-Aug-01 09:33 UTC. Time now 2014-Aug-01 09:49 UTC.
Position N 37°57' E 023°38'.

Length 128 m; draft 4.5 m.

Type: Passenger vessel. MMSI: 239311000.

Date/timePositionNaut miles runAvg speedWind from/ knotsBaromVisibWave heightAir tempDewpointWater temp
2014-Aug-01 09:33N 37°57' E 023°38'0 0.0
2014-Aug-01 08:33N 37°57' E 023°38'0 0.0
2014-Aug-01 07:33N 37°57' E 023°38'0 0.0
2014-Aug-01 06:33N 37°57' E 023°38'0 0.0
2014-Aug-01 05:30N 37°57' E 023°38'0 0.0
2014-Aug-01 04:33N 37°57' E 023°38'0 0.1
2014-Aug-01 03:32N 37°57' E 023°38'1010.6
2014-Aug-01 02:33N 37°47' E 023°42'1313.1
2014-Aug-01 01:33N 37°34' E 023°42'1414.5
2014-Aug-01 00:34N 37°20' E 023°36'1514.6
2014-Jul-31 23:34N 37°06' E 023°30'1414.0
2014-Jul-31 22:33N 36°53' E 023°24'1414.0
2014-Jul-31 21:33N 36°40' E 023°20'1414.0
2014-Jul-31 20:34N 36°27' E 023°14'1312.0
2014-Jul-31 19:30N 36°16' E 023°05'6 6.2
2014-Jul-31 18:33N 36°13' E 023°10'1413.6
2014-Jul-31 17:33N 36°01' E 023°20'1514.0
2014-Jul-31 16:28N 35°49' E 023°30'11 0.5
2014-Jul-30 18:20N 35°54' E 023°19'30 3.4
2014-Jul-30 09:33N 36°21' E 023°01'7 7.2
2014-Jul-30 08:33N 36°15' E 023°07'1514.9
2014-Jul-30 07:33N 36°02' E 023°15'10 9.3
2014-Jul-30 06:30N 35°53' E 023°20'1414.7
2014-Jul-30 05:33N 35°43' E 023°32'40 1.3
2014-Jul-28 22:31N 36°16' E 023°05'6 6.3
2014-Jul-28 21:33N 36°21' E 023°09'1714.0
2014-Jul-28 20:21N 36°36' E 023°19'1214.3
2014-Jul-28 19:33N 36°47' E 023°23'1713.9
2014-Jul-28 18:18N 37°04' E 023°29'1013.3
2014-Jul-28 17:32N 37°13' E 023°33'1313.4
2014-Jul-28 16:33N 37°26' E 023°38'1414.0
2014-Jul-28 15:33N 37°40' E 023°42'1413.9
2014-Jul-28 14:33N 37°53' E 023°37'4 4.2
2014-Jul-28 13:33N 37°57' E 023°38'0 0.0
2014-Jul-28 12:33N 37°57' E 023°38'0 0.0
2014-Jul-28 11:33N 37°57' E 023°38'0 0.0
2014-Jul-28 10:33N 37°57' E 023°38'0 0.0
2014-Jul-28 09:33N 37°57' E 023°38'0 0.0
2014-Jul-28 08:33N 37°57' E 023°38'0 0.0
2014-Jul-28 07:33N 37°57' E 023°38'0 0.0
2014-Jul-28 06:33N 37°57' E 023°38'0 0.0
2014-Jul-28 05:33N 37°57' E 023°38'0 0.0
2014-Jul-28 04:33N 37°57' E 023°38'0 0.0
2014-Jul-28 03:33N 37°57' E 023°38'2 1.9
2014-Jul-28 02:33N 37°55' E 023°37'1515.1
2014-Jul-28 01:33N 37°41' E 023°45'1514.6
2014-Jul-28 00:33N 37°28' E 023°39'1515.2
2014-Jul-27 23:33N 37°13' E 023°32'1515.0
2014-Jul-27 22:33N 36°59' E 023°27'1514.9
2014-Jul-27 21:33N 36°45' E 023°21'1514.3
2014-Jul-27 20:32N 36°31' E 023°16'16 8.0
2014-Jul-27 18:28N 36°17' E 023°06'1314.4
2014-Jul-27 17:33N 36°05' E 023°13'12 8.9
2014-Jul-27 16:14N 35°54' E 023°18'913.6
2014-Jul-27 15:33N 35°48' E 023°27'9 0.2
2014-Jul-26 01:13N 35°54' E 023°18'8110.6
2014-Jul-25 17:33N 37°15' E 023°33'1313.4
2014-Jul-25 16:34N 37°27' E 023°38'1414.0
2014-Jul-25 15:33N 37°41' E 023°41'1414.1
2014-Jul-25 14:34N 37°55' E 023°37'2 2.3
2014-Jul-25 13:33N 37°57' E 023°38'0 0.0
2014-Jul-25 12:33N 37°57' E 023°38'0 0.0
2014-Jul-25 11:33N 37°57' E 023°38'0 0.0
2014-Jul-25 10:33N 37°57' E 023°38'0 0.0
2014-Jul-25 09:33N 37°57' E 023°38'0 0.0
2014-Jul-25 08:33N 37°57' E 023°38'0 0.0
2014-Jul-25 07:33N 37°57' E 023°38'0 0.0
2014-Jul-25 06:33N 37°57' E 023°38'0 0.0
2014-Jul-25 05:33N 37°57' E 023°38'5 1.7
2014-Jul-25 02:33N 37°52' E 023°39'1413.5
2014-Jul-25 01:29N 37°38' E 023°44'1414.7
2014-Jul-25 00:33N 37°25' E 023°38'2215.1
2014-Jul-24 23:05N 37°04' E 023°29'1015.2
2014-Jul-24 22:25N 36°55' E 023°25'1414.8
2014-Jul-24 21:29N 36°42' E 023°19'72 2.9
2014-Jul-23 21:11N 35°32' E 023°39'1 0.0
2014-Jul-22 15:32N 35°31' E 023°38'  

Dump ship's entire track history